Time,TemperatureF,DewpointF,PressureIn,WindDirection,WindDirectionDegrees,WindSpeedMPH,WindSpeedGustMPH,Humidity,HourlyPrecipIn,Conditions,Clouds,dailyrainin,SoftwareType,DateUTC
2013-03-29 00:00:00,36.5,31.5,30.09,WNW,283,0.0,11.0,82,0.00,,,0.00,Wunderground v.1.15,2013-03-29 04:00:00,
2013-03-29 00:10:00,37.0,31.7,30.09,WNW,283,0.0,11.0,81,0.00,,,0.00,Wunderground v.1.15,2013-03-29 04:10:00,
2013-03-29 00:20:00,36.8,31.8,30.09,WNW,283,0.0,11.0,82,0.00,,,0.00,Wunderground v.1.15,2013-03-29 04:20:00,
2013-03-29 00:30:00,36.8,31.8,30.09,WNW,283,0.0,11.0,82,0.00,,,0.00,Wunderground v.1.15,2013-03-29 04:30:00,
2013-03-29 00:40:00,36.8,31.5,30.09,WNW,283,0.0,11.0,81,0.00,,,0.00,Wunderground v.1.15,2013-03-29 04:40:00,
2013-03-29 00:50:00,36.6,31.3,30.10,WNW,283,0.0,11.0,81,0.00,,,0.00,Wunderground v.1.15,2013-03-29 04:50:00,
2013-03-29 01:00:00,36.6,31.6,30.10,WNW,283,0.0,11.0,82,0.00,,,0.00,Wunderground v.1.15,2013-03-29 05:00:00,
2013-03-29 01:10:00,36.6,31.6,30.10,WNW,283,0.0,11.0,82,0.00,,,0.00,Wunderground v.1.15,2013-03-29 05:10:00,
2013-03-29 01:20:00,36.9,31.9,30.10,WNW,283,0.0,11.0,82,0.00,,,0.00,Wunderground v.1.15,2013-03-29 05:20:00,
2013-03-29 01:30:00,36.8,31.8,30.10,WNW,283,0.0,11.0,82,0.00,,,0.00,Wunderground v.1.15,2013-03-29 05:30:00,
2013-03-29 01:40:00,36.6,31.6,30.10,WNW,283,1.0,11.0,82,0.00,,,0.00,Wunderground v.1.15,2013-03-29 05:40:00,
2013-03-29 01:50:00,37.0,32.0,30.09,WNW,283,0.0,11.0,82,0.00,,,0.00,Wunderground v.1.15,2013-03-29 05:50:00,
2013-03-29 02:00:00,36.9,31.6,30.09,WNW,283,0.0,11.0,81,0.00,,,0.00,Wunderground v.1.15,2013-03-29 06:00:00,
2013-03-29 02:10:00,36.9,31.6,30.09,WNW,283,1.0,1.0,81,0.00,,,0.00,Wunderground v.1.15,2013-03-29 06:10:00,
2013-03-29 02:20:00,36.9,31.9,30.09,WNW,283,0.0,11.0,82,0.00,,,0.00,Wunderground v.1.15,2013-03-29 06:20:00,
2013-03-29 02:30:00,36.8,31.8,30.09,WNW,283,0.0,11.0,82,0.00,,,0.00,Wunderground v.1.15,2013-03-29 06:30:00,
2013-03-29 02:40:00,36.9,31.6,30.09,WNW,283,0.0,11.0,81,0.00,,,0.00,Wunderground v.1.15,2013-03-29 06:40:00,
2013-03-29 02:50:00,36.9,31.6,30.10,WNW,283,1.0,1.0,81,0.00,,,0.00,Wunderground v.1.15,2013-03-29 06:50:00,
2013-03-29 03:00:00,36.6,31.0,30.10,East,96,1.0,11.0,80,0.00,,,0.00,Wunderground v.1.15,2013-03-29 07:00:00,
2013-03-29 03:10:00,36.3,31.0,30.10,East,97,0.0,11.0,81,0.00,,,0.00,Wunderground v.1.15,2013-03-29 07:10:00,
2013-03-29 03:20:00,36.3,31.0,30.10,East,98,1.0,1.0,81,0.00,,,0.00,Wunderground v.1.15,2013-03-29 07:20:00,
2013-03-29 03:30:00,36.0,30.7,30.10,East,98,0.0,11.0,81,0.00,,,0.00,Wunderground v.1.15,2013-03-29 07:30:00,
2013-03-29 03:40:00,35.6,30.6,30.10,East,98,0.0,11.0,82,0.00,,,0.00,Wunderground v.1.15,2013-03-29 07:40:00,
2013-03-29 03:50:00,35.2,30.6,30.10,East,98,0.0,11.0,83,0.00,,,0.00,Wunderground v.1.15,2013-03-29 07:50:00,
2013-03-29 04:00:00,34.7,30.4,30.10,East,98,0.0,11.0,84,0.00,,,0.00,Wunderground v.1.15,2013-03-29 08:00:00,
2013-03-29 04:10:00,34.4,30.4,30.10,East,98,0.0,11.0,85,0.00,,,0.00,Wunderground v.1.15,2013-03-29 08:10:00,
2013-03-29 04:20:00,34.4,30.4,30.10,East,98,0.0,11.0,85,0.00,,,0.00,Wunderground v.1.15,2013-03-29 08:20:00,
2013-03-29 04:30:00,34.0,29.7,30.09,East,98,0.0,11.0,84,0.00,,,0.00,Wunderground v.1.15,2013-03-29 08:30:00,
2013-03-29 04:40:00,33.7,29.7,30.09,ENE,73,0.0,11.0,85,0.00,,,0.00,Wunderground v.1.15,2013-03-29 08:40:00,
2013-03-29 04:50:00,34.1,30.4,30.09,ENE,73,0.0,11.0,86,0.00,,,0.00,Wunderground v.1.15,2013-03-29 08:50:00,
2013-03-29 05:00:00,34.1,30.1,30.10,ENE,73,0.0,11.0,85,0.00,,,0.00,Wunderground v.1.15,2013-03-29 09:00:00,
2013-03-29 05:10:00,34.1,30.1,30.10,East,81,1.0,1.0,85,0.00,,,0.00,Wunderground v.1.15,2013-03-29 09:10:00,
2013-03-29 05:20:00,33.8,30.1,30.10,East,81,0.0,11.0,86,0.00,,,0.00,Wunderground v.1.15,2013-03-29 09:20:00,
2013-03-29 05:30:00,33.5,29.5,30.10,East,81,0.0,11.0,85,0.00,,,0.00,Wunderground v.1.15,2013-03-29 09:30:00,
2013-03-29 05:40:00,33.2,29.5,30.10,East,81,0.0,11.0,86,0.00,,,0.00,Wunderground v.1.15,2013-03-29 09:40:00,
2013-03-29 05:50:00,33.4,29.9,30.10,East,81,0.0,11.0,87,0.00,,,0.00,Wunderground v.1.15,2013-03-29 09:50:00,
2013-03-29 06:00:00,34.1,30.1,30.10,East,81,0.0,11.0,85,0.00,,,0.00,Wunderground v.1.15,2013-03-29 10:00:00,
2013-03-29 06:10:00,33.7,29.7,30.10,East,81,0.0,11.0,85,0.00,,,0.00,Wunderground v.1.15,2013-03-29 10:10:00,
2013-03-29 06:20:00,33.2,29.5,30.10,East,81,0.0,11.0,86,0.00,,,0.00,Wunderground v.1.15,2013-03-29 10:20:00,
2013-03-29 06:30:00,32.8,29.1,30.10,East,81,0.0,11.0,86,0.00,,,0.00,Wunderground v.1.15,2013-03-29 10:30:00,
2013-03-29 06:40:00,32.8,29.1,30.10,East,81,0.0,11.0,86,0.00,,,0.00,Wunderground v.1.15,2013-03-29 10:40:00,
2013-03-29 06:50:00,32.9,29.2,30.10,East,81,0.0,11.0,86,0.00,,,0.00,Wunderground v.1.15,2013-03-29 10:50:00,
2013-03-29 07:00:00,32.8,29.1,30.10,East,81,0.0,11.0,86,0.00,,,0.00,Wunderground v.1.15,2013-03-29 11:00:00,
2013-03-29 07:10:00,32.8,29.1,30.10,East,81,0.0,11.0,86,0.00,,,0.00,Wunderground v.1.15,2013-03-29 11:10:00,
2013-03-29 07:20:00,32.9,29.2,30.11,East,81,0.0,11.0,86,0.00,,,0.00,Wunderground v.1.15,2013-03-29 11:20:00,
2013-03-29 07:30:00,33.1,29.4,30.11,East,81,0.0,11.0,86,0.00,,,0.00,Wunderground v.1.15,2013-03-29 11:30:00,
2013-03-29 07:40:00,33.1,29.4,30.11,East,81,0.0,11.0,86,0.00,,,0.00,Wunderground v.1.15,2013-03-29 11:40:00,
2013-03-29 07:50:00,33.4,29.4,30.11,East,81,0.0,11.0,85,0.00,,,0.00,Wunderground v.1.15,2013-03-29 11:50:00,
2013-03-29 08:00:00,33.2,29.5,30.11,East,81,0.0,11.0,86,0.00,,,0.00,Wunderground v.1.15,2013-03-29 12:00:00,
2013-03-29 08:10:00,34.0,30.0,30.11,SSE,147,1.0,11.0,85,0.00,,,0.00,Wunderground v.1.15,2013-03-29 12:10:00,
2013-03-29 08:20:00,35.5,30.5,30.12,ESE,111,2.0,11.0,82,0.00,,,0.00,Wunderground v.1.15,2013-03-29 12:20:00,
2013-03-29 08:30:00,36.0,30.7,30.12,South,171,1.0,1.0,81,0.00,,,0.00,Wunderground v.1.15,2013-03-29 12:30:00,
2013-03-29 08:40:00,37.3,31.4,30.12,SE,139,0.0,11.0,79,0.00,,,0.00,Wunderground v.1.15,2013-03-29 12:40:00,
2013-03-29 08:50:00,38.3,31.1,30.12,SSE,166,0.0,11.0,75,0.00,,,0.00,Wunderground v.1.15,2013-03-29 12:50:00,
2013-03-29 09:00:00,38.5,31.3,30.12,SSE,166,1.0,1.0,75,0.00,,,0.00,Wunderground v.1.15,2013-03-29 13:00:00,
2013-03-29 09:10:00,38.8,31.2,30.12,SE,139,2.0,2.0,74,0.00,,,0.00,Wunderground v.1.15,2013-03-29 13:10:00,
2013-03-29 09:20:00,40.2,32.2,30.12,SSE,150,0.0,11.0,73,0.00,,,0.00,Wunderground v.1.15,2013-03-29 13:20:00,
2013-03-29 09:30:00,40.9,32.2,30.12,SSE,153,0.0,11.0,71,0.00,,,0.00,Wunderground v.1.15,2013-03-29 13:30:00,
2013-03-29 09:40:00,41.5,32.1,30.12,SSW,200,1.0,1.0,69,0.00,,,0.00,Wunderground v.1.15,2013-03-29 13:40:00,
2013-03-29 09:50:00,41.9,32.5,30.12,South,180,1.0,11.0,69,0.00,,,0.00,Wunderground v.1.15,2013-03-29 13:50:00,
2013-03-29 10:00:00,41.9,32.5,30.11,South,182,1.0,11.0,69,0.00,,,0.00,Wunderground v.1.15,2013-03-29 14:00:00,
2013-03-29 10:10:00,42.3,32.1,30.11,SSE,148,0.0,11.0,67,0.00,,,0.00,Wunderground v.1.15,2013-03-29 14:10:00,
2013-03-29 10:20:00,42.3,32.1,30.11,SE,146,0.0,11.0,67,0.00,,,0.00,Wunderground v.1.15,2013-03-29 14:20:00,
2013-03-29 10:30:00,42.2,32.4,30.11,SSE,160,1.0,1.0,68,0.00,,,0.00,Wunderground v.1.15,2013-03-29 14:30:00,
2013-03-29 10:40:00,42.9,31.9,30.11,SE,131,1.0,1.0,65,0.00,,,0.00,Wunderground v.1.15,2013-03-29 14:40:00,
2013-03-29 10:50:00,43.5,32.1,30.11,SE,131,1.0,1.0,64,0.00,,,0.00,Wunderground v.1.15,2013-03-29 14:50:00,
2013-03-29 11:00:00,43.1,31.7,30.10,SE,131,0.0,11.0,64,0.00,,,0.00,Wunderground v.1.15,2013-03-29 15:00:00,
2013-03-29 11:10:00,43.5,32.1,30.10,SE,131,0.0,11.0,64,0.00,,,0.00,Wunderground v.1.15,2013-03-29 15:10:00,
2013-03-29 11:20:00,45.1,33.6,30.10,SSE,148,0.0,11.0,64,0.00,,,0.00,Wunderground v.1.15,2013-03-29 15:20:00,
2013-03-29 11:30:00,45.4,32.7,30.10,SE,131,1.0,1.0,61,0.00,,,0.00,Wunderground v.1.15,2013-03-29 15:30:00,
2013-03-29 11:40:00,45.5,32.0,30.10,North,351,2.0,2.0,59,0.00,,,0.00,Wunderground v.1.15,2013-03-29 15:40:00,
2013-03-29 11:50:00,47.0,33.0,30.10,SW,224,0.0,11.0,58,0.00,,,0.00,Wunderground v.1.15,2013-03-29 15:50:00,
2013-03-29 12:00:00,46.5,32.5,30.09,ESE,114,2.0,2.0,58,0.00,,,0.00,Wunderground v.1.15,2013-03-29 16:00:00,
2013-03-29 12:10:00,46.8,32.8,30.09,South,181,0.0,11.0,58,0.00,,,0.00,Wunderground v.1.15,2013-03-29 16:10:00,
2013-03-29 12:20:00,46.1,32.6,30.09,SW,233,1.0,1.0,59,0.00,,,0.00,Wunderground v.1.15,2013-03-29 16:20:00,
2013-03-29 12:30:00,46.1,32.6,30.09,South,170,1.0,11.0,59,0.00,,,0.00,Wunderground v.1.15,2013-03-29 16:30:00,
2013-03-29 12:40:00,46.0,32.0,30.09,West,277,1.0,11.0,58,0.00,,,0.00,Wunderground v.1.15,2013-03-29 16:40:00,
2013-03-29 12:50:00,46.1,31.7,30.08,WSW,258,2.0,2.0,57,0.00,,,0.00,Wunderground v.1.15,2013-03-29 16:50:00,
2013-03-29 13:00:00,45.8,30.1,30.08,West,259,3.0,3.0,54,0.00,,,0.00,Wunderground v.1.15,2013-03-29 17:00:00,
2013-03-29 13:10:00,45.4,32.3,30.08,West,266,3.0,11.0,60,0.00,,,0.00,Wunderground v.1.15,2013-03-29 17:10:00,
2013-03-29 13:20:00,45.7,30.9,30.07,SW,231,2.0,2.0,56,0.00,,,0.00,Wunderground v.1.15,2013-03-29 17:20:00,
2013-03-29 13:30:00,46.2,30.0,30.07,SE,126,3.0,3.0,53,0.00,,,0.00,Wunderground v.1.15,2013-03-29 17:30:00,
2013-03-29 13:40:00,47.1,29.4,30.07,WSW,251,2.0,11.0,50,0.00,,,0.00,Wunderground v.1.15,2013-03-29 17:40:00,
2013-03-29 13:50:00,47.0,31.2,30.06,West,261,3.0,11.0,54,0.00,,,0.00,Wunderground v.1.15,2013-03-29 17:50:00,
2013-03-29 14:00:00,47.1,31.7,30.06,WSW,251,2.0,2.0,55,0.00,,,0.00,Wunderground v.1.15,2013-03-29 18:00:00,
2013-03-29 14:10:00,47.3,31.9,30.06,South,187,0.0,11.0,55,0.00,,,0.00,Wunderground v.1.15,2013-03-29 18:10:00,
2013-03-29 14:20:00,47.1,32.2,30.06,SSW,192,1.0,11.0,56,0.00,,,0.00,Wunderground v.1.15,2013-03-29 18:20:00,
2013-03-29 14:30:00,46.5,31.2,30.05,South,177,1.0,1.0,55,0.00,,,0.00,Wunderground v.1.15,2013-03-29 18:30:00,
2013-03-29 14:40:00,47.1,31.7,30.05,SE,131,0.0,11.0,55,0.00,,,0.00,Wunderground v.1.15,2013-03-29 18:40:00,
2013-03-29 14:50:00,47.7,30.9,30.05,SSE,168,1.0,1.0,52,0.00,,,0.00,Wunderground v.1.15,2013-03-29 18:50:00,
2013-03-29 15:00:00,47.1,30.8,30.05,SW,234,1.0,11.0,53,0.00,,,0.00,Wunderground v.1.15,2013-03-29 19:00:00,
2013-03-29 15:10:00,45.8,32.3,30.05,WSW,249,5.0,5.0,59,0.00,,,0.00,Wunderground v.1.15,2013-03-29 19:10:00,
2013-03-29 15:20:00,45.2,32.5,30.04,West,268,1.0,1.0,61,0.00,,,0.00,Wunderground v.1.15,2013-03-29 19:20:00,
2013-03-29 15:30:00,45.7,30.9,30.04,West,277,2.0,11.0,56,0.00,,,0.00,Wunderground v.1.15,2013-03-29 19:30:00,
2013-03-29 15:40:00,46.2,29.5,30.04,WNW,296,2.0,11.0,52,0.00,,,0.00,Wunderground v.1.15,2013-03-29 19:40:00,
2013-03-29 15:50:00,46.2,29.5,30.04,WSW,244,3.0,11.0,52,0.00,,,0.00,Wunderground v.1.15,2013-03-29 19:50:00,
2013-03-29 16:00:00,45.8,28.7,30.04,West,276,4.0,4.0,51,0.00,,,0.00,Wunderground v.1.15,2013-03-29 20:00:00,
2013-03-29 16:10:00,45.5,33.2,30.04,West,274,4.0,11.0,62,0.00,,,0.00,Wunderground v.1.15,2013-03-29 20:10:00,
2013-03-29 16:20:00,44.2,33.6,30.04,West,281,4.0,4.0,66,0.00,,,0.00,Wunderground v.1.15,2013-03-29 20:20:00,
2013-03-29 16:30:00,43.9,33.3,30.04,NNW,327,2.0,2.0,66,0.00,,,0.00,Wunderground v.1.15,2013-03-29 20:30:00,
2013-03-29 16:40:00,44.2,34.3,30.04,WNW,287,1.0,11.0,68,0.00,,,0.00,Wunderground v.1.15,2013-03-29 20:40:00,
2013-03-29 16:50:00,44.6,31.6,30.04,WSW,251,2.0,2.0,60,0.00,,,0.00,Wunderground v.1.15,2013-03-29 20:50:00,
2013-03-29 17:00:00,45.1,30.8,30.04,WSW,251,0.0,11.0,57,0.00,,,0.00,Wunderground v.1.15,2013-03-29 21:00:00,
2013-03-29 17:10:00,45.2,30.0,30.04,WSW,251,0.0,11.0,55,0.00,,,0.00,Wunderground v.1.15,2013-03-29 21:10:00,
2013-03-29 17:20:00,45.4,30.2,30.04,WSW,254,0.0,11.0,55,0.00,,,0.00,Wunderground v.1.15,2013-03-29 21:20:00,
2013-03-29 17:30:00,45.1,29.9,30.04,WSW,249,1.0,1.0,55,0.00,,,0.00,Wunderground v.1.15,2013-03-29 21:30:00,
2013-03-29 17:40:00,44.9,29.7,30.04,West,275,3.0,11.0,55,0.00,,,0.00,Wunderground v.1.15,2013-03-29 21:40:00,
2013-03-29 17:50:00,44.3,28.2,30.05,WSW,258,5.0,5.0,53,0.00,,,0.00,Wunderground v.1.15,2013-03-29 21:50:00,
2013-03-29 18:00:00,44.1,28.5,30.05,WSW,254,2.0,11.0,54,0.00,,,0.00,Wunderground v.1.15,2013-03-29 22:00:00,
2013-03-29 18:10:00,43.8,27.3,30.05,WNW,300,5.0,5.0,52,0.00,,,0.00,Wunderground v.1.15,2013-03-29 22:10:00,
2013-03-29 18:20:00,43.6,27.1,30.05,West,279,3.0,11.0,52,0.00,,,0.00,Wunderground v.1.15,2013-03-29 22:20:00,
2013-03-29 18:30:00,43.5,26.6,30.06,WNW,285,4.0,11.0,51,0.00,,,0.00,Wunderground v.1.15,2013-03-29 22:30:00,
2013-03-29 18:40:00,43.3,26.4,30.06,WSW,250,3.0,11.0,51,0.00,,,0.00,Wunderground v.1.15,2013-03-29 22:40:00,
2013-03-29 18:50:00,43.1,26.7,30.06,WNW,287,3.0,11.0,52,0.00,,,0.00,Wunderground v.1.15,2013-03-29 22:50:00,
2013-03-29 19:00:00,42.9,27.4,30.06,NW,308,3.0,11.0,54,0.00,,,0.00,Wunderground v.1.15,2013-03-29 23:00:00,
2013-03-29 19:10:00,42.6,27.1,30.06,WNW,293,3.0,11.0,54,0.00,,,0.00,Wunderground v.1.15,2013-03-29 23:10:00,
2013-03-29 19:20:00,42.5,27.0,30.07,WNW,300,2.0,2.0,54,0.00,,,0.00,Wunderground v.1.15,2013-03-29 23:20:00,
2013-03-29 19:30:00,42.3,27.3,30.07,West,279,2.0,2.0,55,0.00,,,0.00,Wunderground v.1.15,2013-03-29 23:30:00,
2013-03-29 19:40:00,42.1,27.5,30.07,WNW,288,1.0,11.0,56,0.00,,,0.00,Wunderground v.1.15,2013-03-29 23:40:00,
2013-03-29 19:50:00,42.1,27.5,30.07,West,273,2.0,11.0,56,0.00,,,0.00,Wunderground v.1.15,2013-03-29 23:50:00,
2013-03-29 20:00:00,41.9,27.3,30.07,West,270,3.0,11.0,56,0.00,,,0.00,Wunderground v.1.15,2013-03-30 00:00:00,
2013-03-29 20:10:00,41.9,27.3,30.07,WNW,291,5.0,11.0,56,0.00,,,0.00,Wunderground v.1.15,2013-03-30 00:10:00,
2013-03-29 20:20:00,41.8,27.2,30.08,WSW,251,4.0,4.0,56,0.00,,,0.00,Wunderground v.1.15,2013-03-30 00:20:00,
2013-03-29 20:30:00,41.6,27.9,30.08,WSW,256,1.0,11.0,58,0.00,,,0.00,Wunderground v.1.15,2013-03-30 00:30:00,
2013-03-29 20:40:00,41.2,27.5,30.08,West,268,2.0,11.0,58,0.00,,,0.00,Wunderground v.1.15,2013-03-30 00:40:00,
2013-03-29 20:50:00,41.1,27.4,30.08,West,277,3.0,3.0,58,0.00,,,0.00,Wunderground v.1.15,2013-03-30 00:50:00,
2013-03-29 21:00:00,40.6,27.4,30.09,WSW,253,2.0,11.0,59,0.00,,,0.00,Wunderground v.1.15,2013-03-30 01:00:00,
2013-03-29 21:10:00,40.2,27.4,30.09,WSW,256,2.0,11.0,60,0.00,,,0.00,Wunderground v.1.15,2013-03-30 01:10:00,
2013-03-29 21:20:00,40.2,27.4,30.09,WNW,293,1.0,11.0,60,0.00,,,0.00,Wunderground v.1.15,2013-03-30 01:20:00,
2013-03-29 21:30:00,40.1,27.3,30.10,WSW,237,1.0,1.0,60,0.00,,,0.00,Wunderground v.1.15,2013-03-30 01:30:00,
2013-03-29 21:40:00,39.9,27.5,30.10,WSW,237,0.0,11.0,61,0.00,,,0.00,Wunderground v.1.15,2013-03-30 01:40:00,
2013-03-29 21:50:00,39.2,28.0,30.10,WSW,237,0.0,11.0,64,0.00,,,0.00,Wunderground v.1.15,2013-03-30 01:50:00,
2013-03-29 22:00:00,38.8,28.4,30.10,WSW,237,0.0,11.0,66,0.00,,,0.00,Wunderground v.1.15,2013-03-30 02:00:00,
2013-03-29 22:10:00,38.3,27.9,30.10,WSW,237,0.0,11.0,66,0.00,,,0.00,Wunderground v.1.15,2013-03-30 02:10:00,
2013-03-29 22:20:00,38.5,28.1,30.10,WSW,237,0.0,11.0,66,0.00,,,0.00,Wunderground v.1.15,2013-03-30 02:20:00,
2013-03-29 22:30:00,38.5,28.1,30.10,WSW,237,0.0,11.0,66,0.00,,,0.00,Wunderground v.1.15,2013-03-30 02:30:00,
2013-03-29 22:40:00,38.8,28.0,30.10,WSW,237,0.0,11.0,65,0.00,,,0.00,Wunderground v.1.15,2013-03-30 02:40:00,
2013-03-29 22:50:00,39.1,28.3,30.10,WSW,237,0.0,11.0,65,0.00,,,0.00,Wunderground v.1.15,2013-03-30 02:50:00,
2013-03-29 23:00:00,38.9,28.1,30.10,WSW,237,0.0,11.0,65,0.00,,,0.00,Wunderground v.1.15,2013-03-30 03:00:00,
2013-03-29 23:10:00,38.9,28.1,30.10,WSW,237,0.0,11.0,65,0.00,,,0.00,Wunderground v.1.15,2013-03-30 03:10:00,
2013-03-29 23:20:00,38.6,28.6,30.10,WSW,237,0.0,11.0,67,0.00,,,0.00,Wunderground v.1.15,2013-03-30 03:20:00,
2013-03-29 23:30:00,38.3,28.7,30.10,WSW,237,0.0,11.0,68,0.00,,,0.00,Wunderground v.1.15,2013-03-30 03:30:00,
2013-03-29 23:40:00,38.2,28.9,30.10,WSW,237,0.0,11.0,69,0.00,,,0.00,Wunderground v.1.15,2013-03-30 03:40:00,
2013-03-29 23:50:00,37.9,28.6,30.10,WSW,237,0.0,11.0,69,0.00,,,0.00,Wunderground v.1.15,2013-03-30 03:50:00,